Terminal Aerodrome Forecast
Issued by NWS

Home | Current Version | Previous Version | Text Only | Print | Product List | Glossary On
Versions: 1 2 3 4 5 6 7 8 9 10 11 12 13 14 15 16 17 18 19 20 21 22 23 24 25 26 27 28 29 30 31 32 33 34 35 36 37 38 39 40 41 42
680
FTUS43 KDMX 041739
TAFFOD
TAF
KFOD 041739Z 0418/0518 24010KT P6SM OVC012
      TEMPO 0419/0421 BKN006
     FM042200 24008KT P6SM SCT015
     FM050300 18005KT 4SM BR SCT004 SCT035
     FM051500 18012G21KT P6SM BKN080=

USA.gov is the U.S. government's official web portal to all federal, state and local government web resources and services.